createdAt,value
2018-09-02T00:02:17.121Z,66.34
2018-09-02T00:07:20.656Z,67.10
2018-09-02T00:12:24.520Z,67.06
2018-09-02T00:17:28.294Z,65.99
2018-09-02T00:22:31.845Z,66.12
2018-09-02T00:27:35.368Z,65.23
2018-09-02T00:32:38.966Z,64.35
2018-09-02T00:37:42.620Z,64.58
2018-09-02T00:42:46.246Z,63.93
2018-09-02T00:47:49.863Z,64.00
2018-09-02T00:52:53.350Z,62.92
2018-09-02T00:57:57.035Z,62.61
2018-09-02T01:03:00.714Z,62.74
2018-09-02T01:08:04.268Z,62.98
2018-09-02T01:13:07.965Z,62.99
2018-09-02T01:18:12.645Z,63.04
2018-09-02T01:23:16.295Z,62.75
2018-09-02T01:28:19.907Z,62.39
2018-09-02T01:33:23.505Z,62.35
2018-09-02T01:38:27.003Z,62.42
2018-09-02T01:43:30.702Z,62.87
2018-09-02T01:48:34.200Z,62.88
2018-09-02T01:53:37.722Z,63.04
2018-09-02T01:58:41.319Z,63.35
2018-09-02T02:03:45.130Z,63.87
2018-09-02T02:08:48.857Z,65.03
2018-09-02T02:13:52.561Z,64.23
2018-09-02T02:18:56.076Z,64.29
2018-09-02T02:23:59.675Z,65.36
2018-09-02T02:29:03.315Z,65.73
2018-09-02T02:34:06.996Z,65.38
2018-09-02T02:39:11.830Z,64.73
2018-09-02T02:44:15.388Z,64.80
2018-09-02T02:49:18.963Z,64.87
2018-09-02T02:54:22.531Z,64.75
2018-09-02T02:59:26.235Z,64.66
2018-09-02T03:04:29.976Z,64.08
2018-09-02T03:09:33.710Z,64.08
2018-09-02T03:14:37.333Z,63.92
2018-09-02T03:19:41.006Z,64.75
2018-09-02T03:24:44.606Z,64.24
2018-09-02T03:29:48.285Z,64.06
2018-09-02T03:34:51.952Z,64.88
2018-09-02T03:39:55.606Z,64.79
2018-09-02T03:44:59.303Z,63.93
2018-09-02T03:50:03.150Z,64.34
2018-09-02T03:55:07.937Z,63.78
2018-09-02T04:00:11.605Z,63.56
2018-09-02T04:05:15.241Z,63.85
2018-09-02T04:10:18.854Z,63.08
2018-09-02T04:15:22.390Z,62.77
2018-09-02T04:20:34.000Z,62.92
2018-09-02T04:25:37.552Z,63.10
2018-09-02T04:30:41.315Z,62.84
2018-09-02T04:35:44.857Z,62.35
2018-09-02T04:40:48.374Z,63.58
2018-09-02T04:45:51.854Z,64.42
2018-09-02T04:50:55.442Z,65.48
2018-09-02T04:55:58.979Z,67.62
2018-09-02T05:01:02.754Z,69.28
2018-09-02T05:06:06.315Z,71.18
2018-09-02T05:11:09.975Z,72.15
2018-09-02T05:16:13.469Z,73.27
2018-09-02T05:21:16.984Z,73.93
2018-09-02T05:26:20.574Z,74.53
2018-09-02T05:31:24.140Z,74.39
2018-09-02T05:36:27.735Z,73.52
2018-09-02T05:41:31.294Z,74.24
2018-09-02T05:46:34.789Z,75.17
2018-09-02T05:51:38.315Z,75.65
2018-09-02T05:56:41.876Z,75.26
2018-09-02T06:01:45.471Z,75.85
2018-09-02T06:06:49.023Z,76.20
2018-09-02T06:11:53.267Z,76.26
2018-09-02T06:16:56.929Z,76.70
2018-09-02T06:22:00.463Z,76.63
2018-09-02T06:27:03.995Z,76.83
2018-09-02T06:32:07.620Z,77.08
2018-09-02T06:37:11.233Z,76.46
2018-09-02T06:42:14.742Z,76.80
2018-09-02T06:47:18.297Z,77.10
2018-09-02T06:52:21.895Z,77.59
2018-09-02T06:57:25.420Z,77.92
2018-09-02T07:02:28.969Z,78.06
2018-09-02T07:07:32.477Z,77.92
2018-09-02T07:12:36.255Z,78.43
2018-09-02T07:17:39.756Z,78.94
2018-09-02T07:22:43.290Z,78.85
2018-09-02T07:27:47.093Z,78.10
2018-09-02T07:33:04.159Z,78.76
2018-09-02T07:38:07.755Z,78.74
2018-09-02T07:43:11.341Z,78.66
2018-09-02T07:48:14.830Z,78.82
2018-09-02T07:53:18.418Z,78.75
2018-09-02T07:58:21.924Z,78.87
2018-09-02T08:03:26.270Z,79.14
2018-09-02T08:08:29.831Z,78.83
2018-09-02T08:13:33.285Z,78.83
2018-09-02T08:18:36.823Z,78.71
2018-09-02T08:23:40.411Z,78.95
2018-09-02T08:28:44.023Z,79.12
2018-09-02T08:33:47.586Z,79.27
2018-09-02T08:38:51.171Z,79.13
2018-09-02T08:43:54.710Z,78.91
2018-09-02T08:48:58.305Z,79.27
2018-09-02T08:54:02.152Z,79.28
2018-09-02T08:59:06.179Z,79.47
2018-09-02T09:04:09.743Z,79.59
2018-09-02T09:09:13.778Z,79.37
2018-09-02T09:14:17.196Z,80.03
2018-09-02T09:19:20.762Z,79.87
2018-09-02T09:24:24.317Z,79.99
2018-09-02T09:29:27.909Z,79.19
2018-09-02T09:34:31.410Z,80.23
2018-09-02T09:39:34.933Z,80.51
2018-09-02T09:44:38.457Z,80.09
2018-09-02T09:49:42.019Z,80.25
2018-09-02T09:54:45.641Z,80.23
2018-09-02T09:59:49.186Z,80.19
2018-09-02T10:04:52.744Z,79.94
2018-09-02T10:09:56.305Z,80.33
2018-09-02T10:14:59.845Z,80.36
2018-09-02T10:20:06.468Z,80.18
2018-09-02T10:25:10.150Z,80.30
2018-09-02T10:30:22.550Z,80.69
2018-09-02T10:35:26.185Z,80.70
2018-09-02T10:40:29.734Z,81.03
2018-09-02T10:45:33.236Z,80.62
2018-09-02T10:50:36.815Z,80.17
2018-09-02T10:55:40.939Z,79.96
2018-09-02T11:00:44.451Z,80.39
2018-09-02T11:05:48.001Z,80.24
2018-09-02T11:10:51.647Z,79.75
2018-09-02T11:15:55.214Z,80.02
2018-09-02T11:20:58.665Z,79.64
2018-09-02T11:26:02.168Z,79.41
2018-09-02T11:31:05.709Z,79.56
2018-09-02T11:36:09.271Z,79.80
2018-09-02T11:41:12.857Z,79.78
2018-09-02T11:46:16.447Z,79.93
2018-09-02T11:51:20.004Z,80.07
2018-09-02T11:56:23.501Z,80.03
2018-09-02T12:01:27.015Z,79.77
2018-09-02T12:06:30.561Z,79.19
2018-09-02T12:11:34.087Z,79.43
2018-09-02T12:16:37.596Z,79.90
2018-09-02T12:21:41.123Z,80.44
2018-09-02T12:26:44.762Z,79.78
2018-09-02T12:31:48.798Z,80.99
2018-09-02T12:36:52.429Z,79.84
2018-09-02T12:41:56.438Z,80.29
2018-09-02T12:46:59.914Z,79.65
2018-09-02T12:52:03.650Z,79.58
2018-09-02T12:57:07.245Z,79.37
2018-09-02T13:02:10.730Z,78.69
2018-09-02T13:07:14.232Z,78.39
2018-09-02T13:12:17.781Z,78.23
2018-09-02T13:17:21.449Z,77.67
2018-09-02T13:22:25.002Z,78.22
2018-09-02T13:27:28.677Z,78.27
2018-09-02T13:32:32.254Z,78.56
2018-09-02T13:37:35.892Z,79.28
2018-09-02T13:42:39.412Z,78.92
2018-09-02T13:47:43.967Z,79.30
2018-09-02T13:52:47.559Z,78.73
2018-09-02T13:57:51.094Z,78.87
2018-09-02T14:02:54.625Z,78.55
2018-09-02T14:07:58.434Z,78.84
2018-09-02T14:13:01.961Z,78.77
2018-09-02T14:18:05.506Z,78.67
2018-09-02T14:23:09.440Z,79.02
2018-09-02T14:28:13.047Z,79.19
2018-09-02T14:33:17.503Z,79.73
2018-09-02T14:38:21.026Z,80.12
2018-09-02T14:43:24.609Z,80.56
2018-09-02T14:48:28.132Z,80.32
2018-09-02T14:53:31.780Z,80.10
2018-09-02T14:58:35.406Z,80.23
2018-09-02T15:03:38.959Z,80.30
2018-09-02T15:08:42.565Z,80.64
2018-09-02T15:13:47.924Z,80.82
2018-09-02T15:18:51.483Z,80.61
2018-09-02T15:23:54.998Z,80.77
2018-09-02T15:28:58.556Z,80.95
2018-09-02T15:34:02.039Z,80.99
2018-09-02T15:39:10.360Z,80.44
2018-09-02T15:44:14.275Z,80.53
2018-09-02T15:49:18.598Z,80.72
2018-09-02T15:54:22.288Z,80.66
2018-09-02T15:59:26.363Z,80.71
2018-09-02T16:04:30.014Z,80.48
2018-09-02T16:09:33.495Z,80.75
2018-09-02T16:14:37.468Z,80.54
2018-09-02T16:19:41.052Z,80.68
2018-09-02T16:24:45.886Z,80.70
2018-09-02T16:29:49.403Z,80.21
2018-09-02T16:34:52.978Z,80.19
2018-09-02T16:39:56.475Z,80.19
2018-09-02T16:45:01.356Z,79.95
2018-09-02T16:50:07.148Z,79.71
2018-09-02T16:55:10.714Z,79.07
2018-09-02T17:00:14.246Z,78.31
2018-09-02T17:05:23.652Z,77.54
2018-09-02T17:10:27.861Z,76.29
2018-09-02T17:15:32.648Z,74.41
2018-09-02T17:20:41.208Z,75.90
2018-09-02T17:25:46.197Z,77.83
2018-09-02T17:30:50.667Z,79.16
2018-09-02T17:35:55.481Z,79.61
2018-09-02T17:41:00.219Z,80.23
2018-09-02T17:46:03.891Z,80.18
2018-09-02T17:51:07.445Z,80.60
2018-09-02T17:56:11.421Z,80.57
2018-09-02T18:01:16.201Z,81.21
2018-09-02T18:06:19.803Z,81.49
2018-09-02T18:11:24.147Z,81.82
2018-09-02T18:16:27.992Z,81.42
2018-09-02T18:21:31.494Z,81.90
2018-09-02T18:26:35.022Z,81.88
2018-09-02T18:31:38.601Z,81.57
2018-09-02T18:36:43.930Z,82.36
2018-09-02T18:41:47.457Z,82.63
2018-09-02T18:46:51.059Z,82.27
2018-09-02T18:51:54.622Z,82.62
2018-09-02T18:56:59.194Z,82.46
2018-09-02T19:02:03.717Z,82.69
2018-09-02T19:07:08.862Z,82.54
2018-09-02T19:12:12.325Z,82.41
2018-09-02T19:17:15.854Z,82.67
2018-09-02T19:22:19.311Z,82.83
2018-09-02T19:27:22.810Z,82.50
2018-09-02T19:32:27.323Z,82.31
2018-09-02T19:37:32.308Z,82.48
2018-09-02T19:42:36.698Z,82.87
2018-09-02T19:47:41.293Z,82.82
2018-09-02T19:52:45.087Z,82.72
2018-09-02T19:57:48.756Z,82.51
2018-09-02T20:02:52.396Z,82.60
2018-09-02T20:07:57.003Z,82.65
2018-09-02T20:13:00.606Z,82.66
2018-09-02T20:18:05.363Z,82.68
2018-09-02T20:23:09.011Z,83.05
2018-09-02T20:28:13.710Z,82.85
2018-09-02T20:33:18.500Z,83.23
2018-09-02T20:38:23.171Z,83.10
2018-09-02T20:43:27.025Z,83.09
2018-09-02T20:48:31.093Z,82.87
2018-09-02T20:53:35.793Z,82.98
2018-09-02T20:58:40.274Z,83.10
2018-09-02T21:03:45.135Z,83.31
2018-09-02T21:08:52.732Z,83.00
2018-09-02T21:13:57.054Z,83.49
2018-09-02T21:19:01.489Z,83.39
2018-09-02T21:24:06.065Z,83.12
2018-09-02T21:29:11.403Z,83.40
2018-09-02T21:34:15.954Z,82.87
2018-09-02T21:39:20.107Z,82.87
2018-09-02T21:44:23.610Z,83.09
2018-09-02T21:49:27.375Z,83.51
2018-09-02T21:54:30.962Z,83.81
2018-09-02T21:59:34.553Z,83.23
2018-09-02T22:04:38.365Z,83.40
2018-09-02T22:09:41.955Z,83.66
2018-09-02T22:14:45.910Z,83.52
2018-09-02T22:19:49.418Z,83.89
2018-09-02T22:24:53.118Z,83.51
2018-09-02T22:29:56.822Z,83.44
2018-09-02T22:35:00.318Z,83.21
2018-09-02T22:40:04.098Z,83.05
2018-09-02T22:45:07.911Z,82.66
2018-09-02T22:50:11.456Z,83.10
2018-09-02T22:55:14.926Z,82.98
2018-09-02T23:00:18.441Z,82.95
2018-09-02T23:05:21.932Z,82.97
2018-09-02T23:10:25.473Z,82.56
2018-09-02T23:25:05.373Z,82.25
2018-09-02T23:30:08.846Z,82.67
2018-09-02T23:35:12.379Z,82.52
2018-09-02T23:40:15.902Z,82.62
2018-09-02T23:45:19.463Z,81.99
2018-09-02T23:50:22.951Z,82.06
2018-09-02T23:55:26.530Z,82.03
